Ouro Preto, Brazil
Current Conditions -  °F | °C
As of 7:00 AM on Saturday 22 Nov 2014 (Local Time) from SBCY Reporting Station
Light Rain Light Rain  
Wind Chill: 75°   Ceiling: 10000
Heat Index: 75°   Visibility: 6mi
Dew Point: 72°   Wind: 3mph
Humidity: 89%   Direction: 300°WNW
Pressure: 29.88"   Gusts: NA
Location:  15.15°S, 55.58°W
Report Text: SBCY 221000Z 30003KT 9999 -RA FEW005 SCT015 BKN100 24/22 Q1012
Loading
Personal Weather Stations






























Interactive Weather Map New forecast layout! Learn more

10-Day Weather Forecast

Advertisements
Track Severe Weather on mobile